createdAt,value
2019-03-01T00:01:13.071Z,38.23
2019-03-01T00:03:42.460Z,38.69
2019-03-01T00:06:23.584Z,38.88
2019-03-01T00:08:55.874Z,38.99
2019-03-01T00:11:37.230Z,39.67
2019-03-01T00:14:25.643Z,39.22
2019-03-01T00:17:09.658Z,39.57
2019-03-01T00:19:47.454Z,39.66
2019-03-01T00:22:37.714Z,40.04
2019-03-01T00:25:18.680Z,40.25
2019-03-01T00:28:02.645Z,41.45
2019-03-01T00:30:43.440Z,42.58
2019-03-01T00:33:27.628Z,43.23
2019-03-01T00:35:59.946Z,44.05
2019-03-01T00:38:35.099Z,44.39
2019-03-01T00:41:10.081Z,44.70
2019-03-01T00:43:57.093Z,44.70
2019-03-01T00:46:26.454Z,44.92
2019-03-01T00:48:55.800Z,45.50
2019-03-01T00:51:25.161Z,45.55
2019-03-01T00:53:54.505Z,46.28
2019-03-01T00:56:23.936Z,46.92
2019-03-01T00:58:53.312Z,46.36
2019-03-01T01:01:22.674Z,45.68
2019-03-01T01:03:52.120Z,43.55
2019-03-01T01:06:21.469Z,43.40
2019-03-01T01:08:50.891Z,44.06
2019-03-01T01:11:20.241Z,44.51
2019-03-01T01:13:49.679Z,45.04
2019-03-01T01:16:19.148Z,45.18
2019-03-01T01:18:48.500Z,44.92
2019-03-01T01:21:17.852Z,44.94
2019-03-01T01:23:47.194Z,44.62
2019-03-01T01:26:16.550Z,44.51
2019-03-01T01:28:45.968Z,44.59
2019-03-01T01:31:15.307Z,44.48
2019-03-01T01:33:44.723Z,44.50
2019-03-01T01:36:13.776Z,44.43
2019-03-01T01:38:43.204Z,44.37
2019-03-01T01:41:12.606Z,43.60
2019-03-01T01:43:41.946Z,43.66
2019-03-01T01:46:11.397Z,43.56
2019-03-01T01:48:40.803Z,43.65
2019-03-01T01:51:10.165Z,43.21
2019-03-01T01:53:39.532Z,43.00
2019-03-01T01:56:08.879Z,42.94
2019-03-01T01:58:38.238Z,43.17
2019-03-01T02:01:06.992Z,43.43
2019-03-01T02:03:36.405Z,43.48
2019-03-01T02:06:05.755Z,44.48
2019-03-01T02:08:35.111Z,44.74
2019-03-01T02:11:03.929Z,44.17
2019-03-01T02:13:32.745Z,43.35
2019-03-01T02:16:01.592Z,43.04
2019-03-01T02:18:30.612Z,42.81
2019-03-01T02:20:59.449Z,42.76
2019-03-01T02:23:28.848Z,42.55
2019-03-01T02:25:57.599Z,42.77
2019-03-01T02:28:26.455Z,42.18
2019-03-01T02:31:01.614Z,41.36
2019-03-01T02:33:31.041Z,40.97
2019-03-01T02:36:00.405Z,40.52
2019-03-01T02:38:29.822Z,40.35
2019-03-01T02:40:59.154Z,40.33
2019-03-01T02:43:28.581Z,39.76
2019-03-01T02:45:58.002Z,39.79
2019-03-01T02:48:27.383Z,39.90
2019-03-01T02:50:56.791Z,39.97
2019-03-01T02:53:26.209Z,39.77
2019-03-01T02:55:55.584Z,39.68
2019-03-01T02:58:24.930Z,39.14
2019-03-01T03:00:54.370Z,38.49
2019-03-01T03:03:23.805Z,38.68
2019-03-01T03:06:11.062Z,38.77
2019-03-01T03:08:40.676Z,38.57
2019-03-01T03:11:10.081Z,38.95
2019-03-01T03:13:39.421Z,39.20
2019-03-01T03:16:08.849Z,39.62
2019-03-01T03:18:38.276Z,39.84
2019-03-01T03:21:07.695Z,40.60
2019-03-01T03:23:37.062Z,41.01
2019-03-01T03:26:06.471Z,41.53
2019-03-01T03:28:35.899Z,41.94
2019-03-01T03:31:05.324Z,42.02
2019-03-01T03:33:34.729Z,42.28
2019-03-01T03:36:04.144Z,41.83
2019-03-01T03:38:33.495Z,41.57
2019-03-01T03:41:02.920Z,41.38
2019-03-01T03:43:32.281Z,41.77
2019-03-01T03:46:01.697Z,42.29
2019-03-01T03:48:31.029Z,42.69
2019-03-01T03:51:00.448Z,43.32
2019-03-01T03:53:29.871Z,43.50
2019-03-01T03:55:59.298Z,42.99
2019-03-01T03:58:28.648Z,42.66
2019-03-01T04:00:58.282Z,42.48
2019-03-01T04:03:27.797Z,42.96
2019-03-01T04:05:57.152Z,42.78
2019-03-01T04:08:26.542Z,42.79
2019-03-01T04:10:55.894Z,42.26
2019-03-01T04:13:25.246Z,41.92
2019-03-01T04:15:54.654Z,41.67
2019-03-01T04:18:24.047Z,41.20
2019-03-01T04:20:53.358Z,41.22
2019-03-01T04:23:22.781Z,41.29
2019-03-01T04:25:52.203Z,41.23
2019-03-01T04:28:21.634Z,40.98
2019-03-01T04:30:50.999Z,40.57
2019-03-01T04:33:20.345Z,41.01
2019-03-01T04:35:49.773Z,41.46
2019-03-01T04:38:19.100Z,41.53
2019-03-01T04:40:48.511Z,41.44
2019-03-01T04:43:17.934Z,41.94
2019-03-01T04:45:47.355Z,42.39
2019-03-01T04:48:16.764Z,42.38
2019-03-01T04:50:46.110Z,42.67
2019-03-01T04:53:15.569Z,42.77
2019-03-01T04:55:44.964Z,42.78
2019-03-01T04:58:14.385Z,42.12
2019-03-01T05:00:43.727Z,42.48
2019-03-01T05:03:13.267Z,42.89
2019-03-01T05:05:42.726Z,42.83
2019-03-01T05:08:12.160Z,43.29
2019-03-01T05:10:41.512Z,43.26
2019-03-01T05:13:10.920Z,43.55
2019-03-01T05:15:40.289Z,43.65
2019-03-01T05:18:09.658Z,43.25
2019-03-01T05:20:38.796Z,43.25
2019-03-01T05:23:08.237Z,42.59
2019-03-01T05:25:37.594Z,41.97
2019-03-01T05:28:07.069Z,41.68
2019-03-01T05:30:36.492Z,41.21
2019-03-01T05:33:05.932Z,41.24
2019-03-01T05:35:35.347Z,41.26
2019-03-01T05:38:04.762Z,41.23
2019-03-01T05:40:34.104Z,41.34
2019-03-01T05:43:03.599Z,41.49
2019-03-01T05:45:32.965Z,41.53
2019-03-01T05:48:02.321Z,41.30
2019-03-01T05:50:31.681Z,40.71
2019-03-01T05:53:01.035Z,40.29
2019-03-01T05:55:30.465Z,40.51
2019-03-01T05:58:20.984Z,40.13
2019-03-01T06:00:51.602Z,40.08
2019-03-01T06:03:47.629Z,39.84
2019-03-01T06:06:22.433Z,39.37
2019-03-01T06:09:27.690Z,39.02
2019-03-01T06:12:19.426Z,38.74
2019-03-01T06:15:10.978Z,38.12
2019-03-01T06:17:46.060Z,37.55
2019-03-01T06:20:33.240Z,37.11
2019-03-01T06:23:23.386Z,36.33
2019-03-01T06:25:55.736Z,35.74
2019-03-01T06:28:28.078Z,34.96
2019-03-01T06:31:09.090Z,34.65
2019-03-01T06:33:47.141Z,34.45
2019-03-01T06:36:34.354Z,33.68
2019-03-01T06:39:16.839Z,33.13
2019-03-01T06:42:08.893Z,32.52
2019-03-01T06:44:55.831Z,32.57
2019-03-01T06:47:45.777Z,32.28
2019-03-01T06:50:19.324Z,32.39
2019-03-01T06:52:48.983Z,32.07
2019-03-01T06:55:30.424Z,31.33
2019-03-01T06:57:59.911Z,31.39
2019-03-01T07:00:30.932Z,31.06
2019-03-01T07:03:01.271Z,30.77
2019-03-01T07:05:30.648Z,30.22
2019-03-01T07:07:59.986Z,30.15
2019-03-01T07:10:29.367Z,29.99
2019-03-01T07:12:58.731Z,30.06
2019-03-01T07:15:28.155Z,29.80
2019-03-01T07:17:57.600Z,29.22
2019-03-01T07:20:27.029Z,29.38
2019-03-01T07:22:56.428Z,28.74
2019-03-01T07:25:25.856Z,28.61
2019-03-01T07:27:55.292Z,28.53
2019-03-01T07:30:24.653Z,28.87
2019-03-01T07:32:54.020Z,28.45
2019-03-01T07:35:23.365Z,27.87
2019-03-01T07:37:52.732Z,27.89
2019-03-01T07:40:22.100Z,27.80
2019-03-01T07:42:51.540Z,27.80
2019-03-01T07:45:21.580Z,27.81
2019-03-01T07:47:50.954Z,27.48
2019-03-01T07:50:20.313Z,27.48
2019-03-01T07:52:49.681Z,27.39
2019-03-01T07:55:19.118Z,27.71
2019-03-01T07:57:49.733Z,27.51
2019-03-01T08:00:19.647Z,27.82
2019-03-01T08:02:49.037Z,27.81
2019-03-01T08:05:18.411Z,27.52
2019-03-01T08:07:55.759Z,27.37
2019-03-01T08:10:22.494Z,26.85
2019-03-01T08:12:49.961Z,26.76
2019-03-01T08:15:19.323Z,26.60
2019-03-01T08:17:48.810Z,26.66
2019-03-01T08:20:19.046Z,26.29
2019-03-01T08:22:49.664Z,26.23
2019-03-01T08:25:23.641Z,26.31
2019-03-01T08:27:50.659Z,26.09
2019-03-01T08:30:20.130Z,26.33
2019-03-01T08:32:49.506Z,25.88
2019-03-01T08:35:19.437Z,26.07
2019-03-01T08:37:49.758Z,25.61
2019-03-01T08:40:20.101Z,25.50
2019-03-01T08:42:49.558Z,25.48
2019-03-01T08:45:22.187Z,26.25
2019-03-01T08:47:51.609Z,26.66
2019-03-01T08:50:21.046Z,26.79
2019-03-01T08:52:50.484Z,26.74
2019-03-01T08:55:30.331Z,26.32
2019-03-01T08:58:03.436Z,26.36
2019-03-01T09:00:39.868Z,25.49
2019-03-01T09:03:12.220Z,25.87
2019-03-01T09:05:41.591Z,26.04
2019-03-01T09:08:10.972Z,25.63
2019-03-01T09:10:40.404Z,25.80
2019-03-01T09:13:09.850Z,25.62
2019-03-01T09:15:39.231Z,26.16
2019-03-01T09:18:11.598Z,25.69
2019-03-01T09:20:39.773Z,25.37
2019-03-01T09:23:21.146Z,25.47
2019-03-01T09:25:41.369Z,25.47
2019-03-01T09:28:11.388Z,25.16
2019-03-01T09:30:43.528Z,24.69
2019-03-01T09:33:11.934Z,24.99
2019-03-01T09:35:43.919Z,24.70
2019-03-01T09:38:13.385Z,24.53
2019-03-01T09:40:42.822Z,24.56
2019-03-01T09:43:12.284Z,24.85
2019-03-01T09:45:41.666Z,24.37
2019-03-01T09:48:12.235Z,24.25
2019-03-01T09:50:42.262Z,24.02
2019-03-01T09:53:11.619Z,24.14
2019-03-01T09:55:41.066Z,24.09
2019-03-01T09:58:10.426Z,24.29
2019-03-01T10:00:56.573Z,24.17
2019-03-01T10:03:25.677Z,24.28
2019-03-01T10:05:55.144Z,24.12
2019-03-01T10:08:24.523Z,23.62
2019-03-01T10:10:53.974Z,23.01
2019-03-01T10:13:23.350Z,23.13
2019-03-01T10:15:52.718Z,22.64
2019-03-01T10:18:22.144Z,22.25
2019-03-01T10:20:51.584Z,23.13
2019-03-01T10:23:21.013Z,23.67
2019-03-01T10:25:50.501Z,23.78
2019-03-01T10:28:19.848Z,23.76
2019-03-01T10:30:49.214Z,23.12
2019-03-01T10:33:18.600Z,22.76
2019-03-01T10:35:48.024Z,23.03
2019-03-01T10:38:17.460Z,22.43
2019-03-01T10:40:46.826Z,21.78
2019-03-01T10:43:16.210Z,22.06
2019-03-01T10:45:45.639Z,22.08
2019-03-01T10:48:15.078Z,22.19
2019-03-01T10:50:44.510Z,20.60
2019-03-01T10:53:14.054Z,21.29
2019-03-01T10:55:43.488Z,20.80
2019-03-01T10:58:12.876Z,21.26
2019-03-01T11:00:42.344Z,21.26
2019-03-01T11:03:11.748Z,21.45
2019-03-01T11:05:41.227Z,20.36
2019-03-01T11:08:10.599Z,20.67
2019-03-01T11:10:40.832Z,20.91
2019-03-01T11:13:12.738Z,20.98
2019-03-01T11:15:42.235Z,21.31
2019-03-01T11:18:11.660Z,20.74
2019-03-01T11:20:41.090Z,20.68
2019-03-01T11:23:10.457Z,20.02
2019-03-01T11:25:39.892Z,20.54
2019-03-01T11:28:10.542Z,20.98
2019-03-01T11:30:40.217Z,20.66
2019-03-01T11:33:09.573Z,21.29
2019-03-01T11:35:38.999Z,21.62
2019-03-01T11:38:08.443Z,20.94
2019-03-01T11:40:39.210Z,21.17
2019-03-01T11:43:08.584Z,21.49
2019-03-01T11:45:38.026Z,21.57
2019-03-01T11:48:07.504Z,21.31
2019-03-01T11:50:36.936Z,21.32
2019-03-01T11:53:06.369Z,20.94
2019-03-01T11:55:35.818Z,21.32
2019-03-01T11:58:05.204Z,20.97
2019-03-01T12:00:34.681Z,20.30
2019-03-01T12:03:04.038Z,20.66
2019-03-01T12:05:33.527Z,20.57
2019-03-01T12:08:02.974Z,20.63
2019-03-01T12:10:32.620Z,20.37
2019-03-01T12:13:01.997Z,20.19
2019-03-01T12:15:31.438Z,20.79
2019-03-01T12:18:00.810Z,20.79
2019-03-01T12:20:32.522Z,20.13
2019-03-01T12:23:01.885Z,20.93
2019-03-01T12:25:31.323Z,20.93
2019-03-01T12:28:00.805Z,20.64
2019-03-01T12:30:30.241Z,20.45
2019-03-01T12:32:59.609Z,20.44
2019-03-01T12:35:29.055Z,20.17
2019-03-01T12:37:58.508Z,20.48
2019-03-01T12:40:31.543Z,20.48
2019-03-01T12:43:00.976Z,20.13
2019-03-01T12:45:30.368Z,19.76
2019-03-01T12:47:59.744Z,20.27
2019-03-01T12:50:29.278Z,20.65
2019-03-01T12:52:58.698Z,20.84
2019-03-01T12:55:29.244Z,20.84
2019-03-01T12:57:58.694Z,20.37
2019-03-01T13:00:40.203Z,20.82
2019-03-01T13:03:09.883Z,20.65
2019-03-01T13:05:39.557Z,20.90
2019-03-01T13:08:08.911Z,20.52
2019-03-01T13:10:40.140Z,20.52
2019-03-01T13:13:09.637Z,20.51
2019-03-01T13:15:39.006Z,20.54
2019-03-01T13:18:10.239Z,21.32
2019-03-01T13:20:39.697Z,21.35
2019-03-01T13:23:09.560Z,21.06
2019-03-01T13:25:39.010Z,21.56
2019-03-01T13:28:08.447Z,21.57
2019-03-01T13:30:37.894Z,21.48
2019-03-01T13:33:07.286Z,21.68
2019-03-01T13:35:36.702Z,21.29
2019-03-01T13:38:06.088Z,21.23
2019-03-01T13:40:35.525Z,21.63
2019-03-01T13:43:04.902Z,21.13
2019-03-01T13:45:34.336Z,21.52
2019-03-01T13:48:03.700Z,21.49
2019-03-01T13:50:33.082Z,21.77
2019-03-01T13:53:02.447Z,21.57
2019-03-01T13:55:31.817Z,21.27
2019-03-01T13:58:01.294Z,21.27
2019-03-01T14:00:30.716Z,21.50
2019-03-01T14:03:00.145Z,21.48
2019-03-01T14:05:29.596Z,21.89
2019-03-01T14:08:08.377Z,21.99
2019-03-01T14:10:30.403Z,22.35
2019-03-01T14:12:59.841Z,22.10
2019-03-01T14:15:30.020Z,22.15
2019-03-01T14:18:01.240Z,22.23
2019-03-01T14:20:30.641Z,22.86
2019-03-01T14:23:00.052Z,22.54
2019-03-01T14:25:29.490Z,22.54
2019-03-01T14:28:02.217Z,22.75
2019-03-01T14:30:33.267Z,22.90
2019-03-01T14:33:01.287Z,22.92
2019-03-01T14:35:30.736Z,23.06
2019-03-01T14:38:00.197Z,23.13
2019-03-01T14:40:29.650Z,23.08
2019-03-01T14:42:59.108Z,23.59
2019-03-01T14:45:33.248Z,23.84
2019-03-01T14:48:04.970Z,24.25
2019-03-01T14:50:34.759Z,24.62
2019-03-01T14:53:04.191Z,24.41
2019-03-01T14:55:39.675Z,24.18
2019-03-01T14:58:11.965Z,24.18
2019-03-01T15:00:49.619Z,24.23
2019-03-01T15:03:33.052Z,24.31
2019-03-01T15:06:02.429Z,24.50
2019-03-01T15:08:31.799Z,24.64
2019-03-01T15:11:04.271Z,25.15
2019-03-01T15:13:35.819Z,25.02
2019-03-01T15:16:06.048Z,25.31
2019-03-01T15:18:35.997Z,25.42
2019-03-01T15:21:06.658Z,25.42
2019-03-01T15:23:36.027Z,26.00
2019-03-01T15:26:05.703Z,26.50
2019-03-01T15:28:43.709Z,26.65
2019-03-01T15:31:13.163Z,27.03
2019-03-01T15:33:46.502Z,27.44
2019-03-01T15:36:17.450Z,27.94
2019-03-01T15:38:44.831Z,28.81
2019-03-01T15:41:14.269Z,28.80
2019-03-01T15:43:43.713Z,29.18
2019-03-01T15:46:14.357Z,29.54
2019-03-01T15:48:44.269Z,29.53
2019-03-01T15:51:13.656Z,29.90
2019-03-01T15:53:43.039Z,30.03
2019-03-01T15:56:12.568Z,30.48
2019-03-01T15:58:42.004Z,30.63
2019-03-01T16:01:12.115Z,31.03
2019-03-01T16:03:41.593Z,30.88
2019-03-01T16:06:17.310Z,31.09
2019-03-01T16:08:43.871Z,30.93
2019-03-01T16:11:13.662Z,31.10
2019-03-01T16:13:47.765Z,31.04
2019-03-01T16:16:14.576Z,31.13
2019-03-01T16:18:43.999Z,31.56
2019-03-01T16:21:13.417Z,31.73
2019-03-01T16:23:42.854Z,32.15
2019-03-01T16:26:12.297Z,32.43
2019-03-01T16:28:41.734Z,32.69
2019-03-01T16:31:11.146Z,32.84
2019-03-01T16:33:40.689Z,33.12
2019-03-01T16:36:11.676Z,33.14
2019-03-01T16:38:41.390Z,33.45
2019-03-01T16:41:12.289Z,33.26
2019-03-01T16:43:41.655Z,33.39
2019-03-01T16:46:11.116Z,33.53
2019-03-01T16:48:40.567Z,33.68
2019-03-01T16:51:10.226Z,33.90
2019-03-01T16:53:40.492Z,34.57
2019-03-01T16:56:10.955Z,35.03
2019-03-01T16:58:40.326Z,34.85
2019-03-01T17:01:09.765Z,34.92
2019-03-01T17:03:39.200Z,34.79
2019-03-01T17:06:10.458Z,35.22
2019-03-01T17:08:40.473Z,34.97
2019-03-01T17:11:10.015Z,35.35
2019-03-01T17:13:39.390Z,35.10
2019-03-01T17:16:08.806Z,34.93
2019-03-01T17:18:38.253Z,35.13
2019-03-01T17:21:08.723Z,34.86
2019-03-01T17:23:39.234Z,34.87
2019-03-01T17:26:09.403Z,34.98
2019-03-01T17:28:38.848Z,35.20
2019-03-01T17:31:08.220Z,35.15
2019-03-01T17:33:39.230Z,34.74
2019-03-01T17:36:08.935Z,35.00
2019-03-01T17:38:43.541Z,35.06
2019-03-01T17:41:09.813Z,34.88
2019-03-01T17:43:40.260Z,35.01
2019-03-01T17:46:09.709Z,35.37
2019-03-01T17:48:39.160Z,35.06
2019-03-01T17:51:08.793Z,35.46
2019-03-01T17:53:39.712Z,35.53
2019-03-01T17:56:09.150Z,35.72
2019-03-01T17:58:38.572Z,35.76
2019-03-01T18:01:08.025Z,35.81
2019-03-01T18:03:37.485Z,36.22
2019-03-01T18:06:06.855Z,36.50
2019-03-01T18:08:39.705Z,36.43
2019-03-01T18:11:08.793Z,36.67
2019-03-01T18:13:38.536Z,36.80
2019-03-01T18:16:07.988Z,36.92
2019-03-01T18:18:37.445Z,37.23
2019-03-01T18:21:10.166Z,37.31
2019-03-01T18:23:38.981Z,37.49
2019-03-01T18:26:08.466Z,37.65
2019-03-01T18:28:38.819Z,38.16
2019-03-01T18:31:08.416Z,38.58
2019-03-01T18:33:37.899Z,38.82
2019-03-01T18:36:08.179Z,39.11
2019-03-01T18:38:37.752Z,39.05
2019-03-01T18:41:07.212Z,39.40
2019-03-01T18:43:36.676Z,39.48
2019-03-01T18:46:06.113Z,39.98
2019-03-01T18:48:35.537Z,39.97
2019-03-01T18:51:06.933Z,39.95
2019-03-01T18:53:36.048Z,40.56
2019-03-01T18:56:05.434Z,40.46
2019-03-01T18:58:34.804Z,40.96
2019-03-01T19:01:07.813Z,40.27
2019-03-01T19:03:36.562Z,40.37
2019-03-01T19:06:06.619Z,40.51
2019-03-01T19:08:36.431Z,40.86
2019-03-01T19:11:06.202Z,40.77
2019-03-01T19:13:37.392Z,40.80
2019-03-01T19:16:06.920Z,41.23
2019-03-01T19:18:36.355Z,41.10
2019-03-01T19:21:06.272Z,41.38
2019-03-01T19:23:35.729Z,41.53
2019-03-01T19:26:05.185Z,42.10
2019-03-01T19:28:34.662Z,42.43
2019-03-01T19:31:04.011Z,42.93
2019-03-01T19:33:34.598Z,43.43
2019-03-01T19:36:04.596Z,43.45
2019-03-01T19:38:33.961Z,44.25
2019-03-01T19:41:03.398Z,44.20
2019-03-01T19:43:32.755Z,44.30
2019-03-01T19:46:02.199Z,44.38
2019-03-01T19:48:34.530Z,44.63
2019-03-01T19:51:02.787Z,45.13
2019-03-01T19:53:32.165Z,45.16
2019-03-01T19:56:01.611Z,45.25
2019-03-01T19:58:30.993Z,45.55
2019-03-01T20:01:00.419Z,45.37
2019-03-01T20:03:29.867Z,45.66
2019-03-01T20:05:59.295Z,45.99
2019-03-01T20:08:29.596Z,46.36
2019-03-01T20:10:59.742Z,46.66
2019-03-01T20:13:29.107Z,47.02
2019-03-01T20:15:58.489Z,47.39
2019-03-01T20:18:27.936Z,47.50
2019-03-01T20:20:57.354Z,47.90
2019-03-01T20:23:29.539Z,47.85
2019-03-01T20:25:57.941Z,47.44
2019-03-01T20:28:27.367Z,47.71
2019-03-01T20:30:56.810Z,47.36
2019-03-01T20:33:27.151Z,47.74
2019-03-01T20:35:57.254Z,47.70
2019-03-01T20:38:26.691Z,47.43
2019-03-01T20:40:56.125Z,47.30
2019-03-01T20:43:25.589Z,47.31
2019-03-01T20:45:54.947Z,47.29
2019-03-01T20:48:25.665Z,47.41
2019-03-01T20:50:55.558Z,47.57
2019-03-01T20:53:24.931Z,47.90
2019-03-01T20:55:54.384Z,47.67
2019-03-01T20:58:23.752Z,48.18
2019-03-01T21:00:53.238Z,48.08
2019-03-01T21:03:24.073Z,47.97
2019-03-01T21:05:53.680Z,47.60
2019-03-01T21:08:28.795Z,47.35
2019-03-01T21:10:54.180Z,46.83
2019-03-01T21:13:23.527Z,46.63
2019-03-01T21:15:53.293Z,46.54
2019-03-01T21:18:22.780Z,46.47
2019-03-01T21:20:53.732Z,46.65
2019-03-01T21:23:23.212Z,46.86
2019-03-01T21:25:52.596Z,46.68
2019-03-01T21:28:21.953Z,46.97
2019-03-01T21:30:51.376Z,46.75
2019-03-01T21:33:24.115Z,46.92
2019-03-01T21:35:52.100Z,47.00
2019-03-01T21:38:21.462Z,47.07
2019-03-01T21:40:50.958Z,47.11
2019-03-01T21:43:20.369Z,47.28
2019-03-01T21:45:49.797Z,47.09
2019-03-01T21:48:21.943Z,47.12
2019-03-01T21:50:51.261Z,47.36
2019-03-01T21:53:20.667Z,47.06
2019-03-01T21:55:50.084Z,46.76
2019-03-01T21:58:19.510Z,46.98
2019-03-01T22:00:48.887Z,47.21
2019-03-01T22:03:18.246Z,47.33
2019-03-01T22:05:48.566Z,47.37
2019-03-01T22:08:18.836Z,47.57
2019-03-01T22:10:48.180Z,47.45
2019-03-01T22:13:17.715Z,47.52
2019-03-01T22:15:47.156Z,47.98
2019-03-01T22:18:16.592Z,48.58
2019-03-01T22:20:46.017Z,48.56
2019-03-01T22:23:16.488Z,48.77
2019-03-01T22:25:46.056Z,49.04
2019-03-01T22:28:15.589Z,49.29
2019-03-01T22:30:44.960Z,49.53
2019-03-01T22:33:17.437Z,49.06
2019-03-01T22:35:45.643Z,49.23
2019-03-01T22:38:15.084Z,49.36
2019-03-01T22:40:44.529Z,49.37
2019-03-01T22:43:13.902Z,49.16
2019-03-01T22:45:45.495Z,49.33
2019-03-01T22:48:14.439Z,49.81
2019-03-01T22:50:43.861Z,49.59
2019-03-01T22:53:13.290Z,49.85
2019-03-01T22:55:42.728Z,49.71
2019-03-01T22:58:12.165Z,49.59
2019-03-01T23:01:08.570Z,49.04
2019-03-01T23:03:38.000Z,49.01
2019-03-01T23:06:07.371Z,49.14
2019-03-01T23:08:36.730Z,49.18
2019-03-01T23:11:06.257Z,49.20
2019-03-01T23:13:35.680Z,49.37
2019-03-01T23:16:05.524Z,49.04
2019-03-01T23:18:37.609Z,49.63
2019-03-01T23:21:06.103Z,49.02
2019-03-01T23:23:35.519Z,48.83
2019-03-01T23:26:04.934Z,48.49
2019-03-01T23:28:34.349Z,48.62
2019-03-01T23:31:04.662Z,48.45
2019-03-01T23:33:34.075Z,48.62
2019-03-01T23:36:03.436Z,48.49
2019-03-01T23:38:32.870Z,48.50
2019-03-01T23:41:02.242Z,48.57
2019-03-01T23:43:31.784Z,48.99
2019-03-01T23:46:01.134Z,49.23
2019-03-01T23:48:30.572Z,49.08
2019-03-01T23:50:59.932Z,49.34
2019-03-01T23:53:30.888Z,49.40
2019-03-01T23:56:00.939Z,49.57
2019-03-01T23:58:30.370Z,49.79
